Terminal Aerodrome Forecast
Issued by NWS

Home | Current Version | Previous Version | Graphics & Text | Print | Product List | Glossary On
Versions: 1 2 3 4 5 6 7 8 9 10 11 12 13 14 15 16
000
FTUS45 KGGW 222326
TAFGDV
TAF
KGDV 222326Z 2300/2324 11012KT P6SM VCTS SCT090CB
     FM230300 09011KT P6SM VCTS SCT100CB
     FM230600 09009KT P6SM SCT110
     FM231000 31010KT P6SM FEW110
     FM231200 30014KT P6SM FEW200
     FM232100 29020G28KT P6SM FEW110=

USA.gov is the U.S. government's official web portal to all federal, state and local government web resources and services.